YBCG/OOL METAR and TAF weather

Enter ICAO airport designator
Station Type Date Time Source
YBCG METAR 2019/09/20 09:30 UTC NOAA

YBCG 200930Z AUTO 23005KT 9999 // SCT017 18/16 Q1025 RF00.0/000.0


Station Type Date Time Source
YBCG Decoded METAR 2019/09/20 09:30 UTC NOAA

Coolangatta Airport Aws, Australia (YBCG) 28-10S 153-30E 6M
Sep 20, 2019 - 05:30 AM EDT / 2019.09.20 0930 UTC
Wind: from the SW (230 degrees) at 6 MPH (5 KT):0
Visibility: greater than 7 mile(s):0
Sky conditions: partly cloudy
Temperature: 64 F (18 C)
Dew Point: 60 F (16 C)
Relative Humidity: 88%
Pressure (altimeter): 30.27 in. Hg (1025 hPa)
ob: YBCG 200930Z AUTO 23005KT 9999 // SCT017 18/16 Q1025 RF00.0/000.0
cycle: 9

Station Type Date Time Source
YBCG TAF 2019/09/20 06:33 UTC NOAA

TAF YBCG 200522Z 2006/2106 10012KT 9999 SCT030
FM201200 20006KT 9999 -SHRA SCT015 BKN025
FM210100 07012KT 9999 -SHRA SCT020 BKN030 INTER 2014/2102 3000 SHRA BKN012

Example: see airport list